createdAt,value
2023-03-06T00:02:49.989Z,0.83
2023-03-06T00:07:53.118Z,0.87
2023-03-06T00:12:58.874Z,0.72
2023-03-06T00:18:05.133Z,0.73
2023-03-06T00:23:09.200Z,0.98
2023-03-06T00:28:16.081Z,1.14
2023-03-06T00:33:19.137Z,1.29
2023-03-06T00:38:22.114Z,1.78
2023-03-06T00:43:25.778Z,2.04
2023-03-06T00:48:28.772Z,2.12
2023-03-06T00:53:31.958Z,2.15
2023-03-06T00:58:35.404Z,2.20
2023-03-06T01:03:38.524Z,1.97
2023-03-06T01:08:41.457Z,2.15
2023-03-06T01:13:44.815Z,2.07
2023-03-06T01:18:50.181Z,2.38
2023-03-06T01:23:53.154Z,2.08
2023-03-06T01:28:57.786Z,2.17
2023-03-06T01:34:00.818Z,1.75
2023-03-06T01:39:04.162Z,1.69
2023-03-06T01:44:07.121Z,1.62
2023-03-06T01:49:38.385Z,1.68
2023-03-06T01:54:47.015Z,1.67
2023-03-06T01:59:56.305Z,1.60
2023-03-06T02:05:02.412Z,1.58
2023-03-06T02:10:07.289Z,1.80
2023-03-06T02:15:12.321Z,1.89
2023-03-06T02:20:34.212Z,1.79
2023-03-06T02:25:50.028Z,1.80
2023-03-06T02:30:56.086Z,1.70
2023-03-06T02:36:02.090Z,1.80
2023-03-06T02:41:08.096Z,1.78
2023-03-06T02:46:11.611Z,1.76
2023-03-06T02:51:14.726Z,1.69
2023-03-06T02:56:17.777Z,1.43
2023-03-06T03:01:21.005Z,1.56
2023-03-06T03:06:24.308Z,1.39
2023-03-06T03:11:27.671Z,1.26
2023-03-06T03:16:31.186Z,0.90
2023-03-06T03:21:35.228Z,1.12
2023-03-06T03:26:38.374Z,1.18
2023-03-06T03:31:47.423Z,0.96
2023-03-06T03:36:50.600Z,1.18
2023-03-06T03:41:53.785Z,1.01
2023-03-06T03:46:56.922Z,1.06
2023-03-06T03:52:00.881Z,1.18
2023-03-06T03:57:07.277Z,0.97
2023-03-06T04:02:15.204Z,1.11
2023-03-06T04:07:26.889Z,1.42
2023-03-06T04:12:30.356Z,1.31
2023-03-06T04:17:35.301Z,1.61
2023-03-06T04:22:41.198Z,2.48
2023-03-06T04:27:44.605Z,2.53
2023-03-06T04:32:47.688Z,2.62
2023-03-06T04:37:50.801Z,2.73
2023-03-06T04:42:57.989Z,3.00
2023-03-06T04:48:01.561Z,3.37
2023-03-06T04:53:05.168Z,3.27
2023-03-06T04:58:08.276Z,3.31
2023-03-06T05:03:13.011Z,3.55
2023-03-06T05:08:16.951Z,4.00
2023-03-06T05:13:19.892Z,3.90
2023-03-06T05:18:23.924Z,3.64
2023-03-06T05:23:31.155Z,3.51
2023-03-06T05:28:34.201Z,3.66
2023-03-06T05:33:37.580Z,3.49
2023-03-06T05:38:40.598Z,3.06
2023-03-06T05:43:43.672Z,3.16
2023-03-06T05:48:47.070Z,3.13
2023-03-06T05:53:53.275Z,3.42
2023-03-06T05:58:56.176Z,3.16
2023-03-06T06:03:59.234Z,3.43
2023-03-06T06:09:02.205Z,3.70
2023-03-06T06:14:05.919Z,3.96
2023-03-06T06:19:08.939Z,3.97
2023-03-06T06:24:12.259Z,4.34
2023-03-06T06:29:15.886Z,4.05
2023-03-06T06:34:20.081Z,4.47
2023-03-06T06:39:24.410Z,4.63
2023-03-06T06:44:27.440Z,4.66
2023-03-06T06:49:30.446Z,4.75
2023-03-06T06:54:34.975Z,5.09
2023-03-06T06:59:38.122Z,5.02
2023-03-06T07:04:56.101Z,5.18
2023-03-06T07:10:07.389Z,5.32
2023-03-06T07:15:13.688Z,5.27
2023-03-06T07:20:16.937Z,5.20
2023-03-06T07:25:20.479Z,5.55
2023-03-06T07:30:24.680Z,5.62
2023-03-06T07:35:27.716Z,6.29
2023-03-06T07:40:30.750Z,6.17
2023-03-06T07:45:34.105Z,6.30
2023-03-06T07:50:39.322Z,6.05
2023-03-06T07:55:42.327Z,6.44
2023-03-06T08:00:45.582Z,6.46
2023-03-06T08:05:48.782Z,6.65
2023-03-06T08:10:53.382Z,6.50
2023-03-06T08:15:57.202Z,7.19
2023-03-06T08:21:08.467Z,7.83
2023-03-06T08:26:14.024Z,7.60
2023-03-06T08:31:32.637Z,7.83
2023-03-06T08:36:36.162Z,8.07
2023-03-06T08:41:42.442Z,8.07
2023-03-06T08:46:45.443Z,8.74
2023-03-06T08:51:48.542Z,8.42
2023-03-06T08:56:51.635Z,8.60
2023-03-06T09:01:54.664Z,8.49
2023-03-06T09:06:57.936Z,8.32
2023-03-06T09:12:00.972Z,8.28
2023-03-06T09:17:03.930Z,8.00
2023-03-06T09:22:07.068Z,8.15
2023-03-06T09:27:10.075Z,8.17
2023-03-06T09:32:13.129Z,7.97
2023-03-06T09:37:17.414Z,8.04
2023-03-06T09:42:23.862Z,7.96
2023-03-06T09:47:45.204Z,7.91
2023-03-06T09:53:12.202Z,7.97
2023-03-06T09:58:24.094Z,8.25
2023-03-06T10:03:48.974Z,8.13
2023-03-06T10:09:00.941Z,8.40
2023-03-06T10:14:28.788Z,8.11
2023-03-06T10:19:37.769Z,8.17
2023-03-06T10:25:02.266Z,8.14
2023-03-06T10:30:30.335Z,7.87
2023-03-06T10:35:48.470Z,7.78
2023-03-06T10:41:02.735Z,7.88
2023-03-06T10:46:07.713Z,7.94
2023-03-06T10:51:25.764Z,7.77
2023-03-06T10:56:38.020Z,7.97
2023-03-06T11:01:55.579Z,7.96
2023-03-06T11:07:26.076Z,7.54
2023-03-06T11:12:29.106Z,7.85
2023-03-06T11:17:32.496Z,7.81
2023-03-06T11:22:38.994Z,7.70
2023-03-06T11:27:44.461Z,7.96
2023-03-06T11:32:55.762Z,7.46
2023-03-06T11:38:17.252Z,7.41
2023-03-06T11:43:28.370Z,7.37
2023-03-06T11:48:49.788Z,7.27
2023-03-06T11:53:54.231Z,7.23
2023-03-06T11:59:43.908Z,7.07
2023-03-06T12:05:13.386Z,7.36
2023-03-06T12:10:23.789Z,7.00
2023-03-06T12:15:37.310Z,6.71
2023-03-06T12:21:04.477Z,6.66
2023-03-06T12:26:19.391Z,6.53
2023-03-06T12:32:00.658Z,6.37
2023-03-06T12:37:40.529Z,6.53
2023-03-06T12:43:14.085Z,6.24
2023-03-06T12:48:24.999Z,6.06
2023-03-06T12:53:31.004Z,6.28
2023-03-06T12:58:34.985Z,6.26
2023-03-06T13:04:14.120Z,6.17
2023-03-06T13:09:43.103Z,6.14
2023-03-06T13:14:54.160Z,6.14
2023-03-06T13:20:15.757Z,6.12
2023-03-06T13:25:21.470Z,6.09
2023-03-06T13:30:45.281Z,6.04
2023-03-06T13:35:53.834Z,6.04
2023-03-06T13:41:25.321Z,6.01
2023-03-06T13:46:31.325Z,5.75
2023-03-06T13:51:56.244Z,5.86
2023-03-06T13:57:17.729Z,5.50
2023-03-06T14:03:14.441Z,5.30
2023-03-06T14:08:20.689Z,5.40
2023-03-06T14:13:45.468Z,5.29
2023-03-06T14:18:53.016Z,5.21
2023-03-06T14:24:01.644Z,5.07
2023-03-06T14:29:04.622Z,5.05
2023-03-06T14:34:15.820Z,5.03
2023-03-06T14:39:23.616Z,5.05
2023-03-06T14:44:26.918Z,4.89
2023-03-06T14:49:29.902Z,4.68
2023-03-06T14:54:39.766Z,4.60
2023-03-06T14:59:55.061Z,4.37
2023-03-06T15:05:03.746Z,4.26
2023-03-06T15:10:10.792Z,4.12
2023-03-06T15:15:14.844Z,4.14
2023-03-06T15:20:36.551Z,3.87
2023-03-06T15:25:39.667Z,3.70
2023-03-06T15:30:42.714Z,3.77
2023-03-06T15:35:57.648Z,3.47
2023-03-06T15:41:02.710Z,3.33
2023-03-06T15:46:07.366Z,3.09
2023-03-06T15:51:10.727Z,3.13
2023-03-06T15:56:14.444Z,2.87
2023-03-06T16:01:18.548Z,2.83
2023-03-06T16:06:24.712Z,2.74
2023-03-06T16:11:41.877Z,2.72
2023-03-06T16:16:46.262Z,2.61
2023-03-06T16:21:49.506Z,2.59
2023-03-06T16:26:55.225Z,2.49
2023-03-06T16:32:00.968Z,2.49
2023-03-06T16:37:04.077Z,2.41
2023-03-06T16:42:10.672Z,2.37
2023-03-06T16:47:14.667Z,2.24
2023-03-06T16:52:18.284Z,2.31
2023-03-06T16:57:21.444Z,2.28
2023-03-06T17:02:24.396Z,2.13
2023-03-06T17:07:27.525Z,1.94
2023-03-06T17:12:30.574Z,1.92
2023-03-06T17:17:34.345Z,1.99
2023-03-06T17:22:37.510Z,1.83
2023-03-06T17:27:40.575Z,1.87
2023-03-06T17:32:43.631Z,1.79
2023-03-06T17:37:46.634Z,1.64
2023-03-06T17:42:51.098Z,1.75
2023-03-06T17:47:54.741Z,1.62
2023-03-06T17:52:57.735Z,1.50
2023-03-06T17:58:00.716Z,1.61
2023-03-06T18:03:03.661Z,1.27
2023-03-06T18:08:08.616Z,1.27
2023-03-06T18:13:11.570Z,1.44
2023-03-06T18:18:15.005Z,1.34
2023-03-06T18:23:18.354Z,1.19
2023-03-06T18:28:21.319Z,1.20
2023-03-06T18:33:24.303Z,1.12
2023-03-06T18:38:27.319Z,1.05
2023-03-06T18:43:30.362Z,1.16
2023-03-06T18:48:33.499Z,0.90
2023-03-06T18:53:36.960Z,0.96
2023-03-06T18:58:39.997Z,0.82
2023-03-06T19:03:43.617Z,0.94
2023-03-06T19:08:46.706Z,0.84
2023-03-06T19:13:49.710Z,0.85
2023-03-06T19:18:55.433Z,0.83
2023-03-06T19:23:59.017Z,0.70
2023-03-06T19:29:01.916Z,0.57
2023-03-06T19:34:04.867Z,0.66
2023-03-06T19:39:08.537Z,0.49
2023-03-06T19:44:12.540Z,0.65
2023-03-06T19:49:18.288Z,0.67
2023-03-06T19:54:23.722Z,0.62
2023-03-06T19:59:27.211Z,0.50
2023-03-06T20:04:34.900Z,0.54
2023-03-06T20:09:38.399Z,0.46
2023-03-06T20:14:41.902Z,0.34
2023-03-06T20:19:44.881Z,0.19
2023-03-06T20:24:47.941Z,0.09
2023-03-06T20:29:50.815Z,0.12
2023-03-06T20:34:53.793Z,0.10
2023-03-06T20:39:56.735Z,0.03
2023-03-06T20:44:59.688Z,-0.11
2023-03-06T20:50:02.624Z,-0.08
2023-03-06T20:55:06.317Z,0.02
2023-03-06T21:00:09.917Z,-0.04
2023-03-06T21:05:13.193Z,-0.18
2023-03-06T21:10:16.302Z,-0.12
2023-03-06T21:15:19.847Z,-0.08
2023-03-06T21:20:23.754Z,-0.32
2023-03-06T21:25:26.728Z,-0.24
2023-03-06T21:30:30.256Z,-0.26
2023-03-06T21:35:38.027Z,-0.45
2023-03-06T21:40:41.326Z,-0.40
2023-03-06T21:45:48.529Z,-0.31
2023-03-06T21:50:51.497Z,-0.42
2023-03-06T21:55:54.413Z,-0.51
2023-03-06T22:00:57.535Z,-0.55
2023-03-06T22:06:08.655Z,-0.58
2023-03-06T22:11:14.628Z,-0.62
2023-03-06T22:16:17.998Z,-0.65
2023-03-06T22:21:22.423Z,-0.59
2023-03-06T22:26:29.524Z,-0.55
2023-03-06T22:31:32.537Z,-0.56
2023-03-06T22:36:35.492Z,-0.57
2023-03-06T22:41:38.912Z,-0.54
2023-03-06T22:46:42.198Z,-0.45
2023-03-06T22:51:45.128Z,-0.50
2023-03-06T22:56:48.042Z,-0.55
2023-03-06T23:01:50.970Z,-0.52
2023-03-06T23:06:54.000Z,-0.64
2023-03-06T23:11:57.045Z,-0.62
2023-03-06T23:17:18.529Z,-0.57
2023-03-06T23:22:39.724Z,-0.66
2023-03-06T23:28:01.153Z,-0.53
2023-03-06T23:33:04.177Z,-0.64
2023-03-06T23:38:07.519Z,-0.45
2023-03-06T23:43:11.954Z,-0.60
2023-03-06T23:48:14.864Z,-0.37
2023-03-06T23:53:17.940Z,-0.33
2023-03-06T23:58:20.981Z,-0.25
